Time;durP1;ratioP1;P1;durP2;ratioP2;P2;SDS_P1;SDS_P2;PMS_P1;PMS_P2;Temp;Humidity;BMP_temperature;BMP_pressure;BME280_temperature;BME280_humidity;BME280_pressure;Samples;Min_cycle;Max_cycle;Signal;HPM_P1;HPM_P2
2023/03/17 00:01:36;;;;;;;10.57;3.90;;;6.30;1.00;;;;;;5051922;28;20922;-57
2023/03/17 00:04:03;;;;;;;9.82;3.97;;;6.20;1.00;;;;;;5051404;28;20384;-57
2023/03/17 00:06:32;;;;;;;9.68;3.90;;;6.10;1.00;;;;;;5033974;28;20740;-58
2023/03/17 00:08:58;;;;;;;9.98;3.60;;;6.70;1.00;;;;;;5051081;28;20775;-57
2023/03/17 00:11:26;;;;;;;13.43;4.60;;;5.90;1.00;;;;;;5051635;28;20443;-57
2023/03/17 00:13:52;;;;;;;9.03;3.57;;;5.80;1.00;;;;;;5051704;28;20430;-57
2023/03/17 00:16:21;;;;;;;12.07;4.45;;;5.90;1.00;;;;;;5051407;28;20393;-57
2023/03/17 00:18:48;;;;;;;11.35;4.70;;;6.00;1.00;;;;;;5051073;28;20804;-57
2023/03/17 00:21:16;;;;;;;10.15;4.25;;;6.10;1.00;;;;;;5050552;28;20491;-58
2023/03/17 00:23:46;;;;;;;10.95;4.40;;;6.10;1.00;;;;;;5051463;28;20385;-57
2023/03/17 00:26:11;;;;;;;11.00;4.32;;;6.10;1.00;;;;;;5051204;28;20385;-57
2023/03/17 00:28:37;;;;;;;10.40;4.30;;;6.10;1.00;;;;;;5051126;28;20417;-57
2023/03/17 00:31:12;;;;;;;9.63;4.20;;;6.60;1.00;;;;;;5050480;28;20408;-58
2023/03/17 00:33:38;;;;;;;11.02;4.80;;;7.00;1.00;;;;;;5033316;28;20408;-57
2023/03/17 00:36:05;;;;;;;12.68;4.30;;;7.70;1.00;;;;;;5050024;28;20762;-58
2023/03/17 00:38:31;;;;;;;14.32;4.53;;;6.20;1.00;;;;;;5051206;28;20842;-57
2023/03/17 00:40:56;;;;;;;10.27;4.20;;;6.80;1.00;;;;;;5050622;28;20428;-57
2023/03/17 00:43:22;;;;;;;11.90;4.37;;;6.20;1.00;;;;;;5033370;28;20858;-57
2023/03/17 00:45:48;;;;;;;11.80;4.23;;;6.30;1.00;;;;;;5051048;28;20405;-57
2023/03/17 00:48:19;;;;;;;10.80;4.03;;;7.10;1.00;;;;;;5050474;28;21124;-57
2023/03/17 00:50:46;;;;;;;10.43;4.40;;;6.30;1.00;;;;;;5050741;28;20417;-57
2023/03/17 00:53:16;;;;;;;9.52;4.50;;;6.40;1.00;;;;;;5050012;28;20433;-57
2023/03/17 00:55:43;;;;;;;9.52;4.43;;;6.40;1.00;;;;;;5051044;28;20392;-57
2023/03/17 00:58:33;;;;;;;11.23;4.03;;;6.50;1.00;;;;;;5050441;28;20485;-57
2023/03/17 01:00:59;;;;;;;9.10;4.37;;;6.60;1.00;;;;;;5049163;28;20397;-57
2023/03/17 01:03:26;;;;;;;10.85;4.28;;;6.90;1.00;;;;;;5050153;28;20493;-58
2023/03/17 01:05:53;;;;;;;10.30;4.65;;;7.90;1.00;;;;;;5050874;28;20396;-57
2023/03/17 01:08:20;;;;;;;10.47;4.30;;;6.40;1.00;;;;;;5050658;28;20381;-57
2023/03/17 01:10:46;;;;;;;10.75;4.20;;;6.30;1.00;;;;;;5050216;28;20382;-57
2023/03/17 01:13:13;;;;;;;10.40;4.30;;;7.30;1.00;;;;;;5049963;28;20511;-57
2023/03/17 01:15:44;;;;;;;11.15;4.03;;;7.00;1.00;;;;;;5050773;28;20416;-57
2023/03/17 01:18:11;;;;;;;9.50;3.92;;;6.30;1.00;;;;;;5050161;28;20393;-57
2023/03/17 01:20:38;;;;;;;9.85;4.43;;;7.20;1.00;;;;;;5050767;28;20394;-57
2023/03/17 01:23:03;;;;;;;14.27;6.10;;;7.50;1.00;;;;;;5049855;28;20389;-58
2023/03/17 01:25:30;;;;;;;14.00;5.97;;;6.50;1.00;;;;;;5050097;28;20374;-57
2023/03/17 01:27:58;;;;;;;11.05;5.32;;;6.70;1.00;;;;;;5049639;28;20418;-61
2023/03/17 01:30:34;;;;;;;10.95;4.20;;;6.60;1.00;;;;;;5050502;28;20443;-56
2023/03/17 01:33:00;;;;;;;29.93;14.00;;;6.70;1.00;;;;;;5049466;28;20456;-57
2023/03/17 01:35:28;;;;;;;38.57;18.17;;;6.60;1.00;;;;;;5050664;28;20385;-57
2023/03/17 01:37:56;;;;;;;60.78;25.92;;;8.00;1.00;;;;;;5050354;28;20412;-57
2023/03/17 01:40:25;;;;;;;37.28;19.73;;;7.00;1.00;;;;;;5050454;28;20416;-57
2023/03/17 01:42:53;;;;;;;15.05;7.93;;;6.60;1.00;;;;;;5050392;28;20464;-58
2023/03/17 01:45:58;;;;;;;13.38;6.97;;;6.60;1.00;;;;;;5050180;28;20378;-59
2023/03/17 01:48:26;;;;;;;11.27;5.40;;;6.70;1.00;;;;;;5050152;28;20385;-58
2023/03/17 01:50:52;;;;;;;14.13;5.70;;;7.70;1.00;;;;;;5050247;28;20385;-58
2023/03/17 01:53:21;;;;;;;10.65;4.68;;;6.70;1.00;;;;;;5049306;28;20405;-57
2023/03/17 01:55:50;;;;;;;9.57;4.70;;;6.70;1.00;;;;;;5050082;28;20385;-58
2023/03/17 01:58:17;;;;;;;14.23;5.40;;;7.30;1.00;;;;;;5048963;28;20416;-58
2023/03/17 02:00:43;;;;;;;16.13;6.00;;;6.70;1.00;;;;;;5049358;28;20419;-58
2023/03/17 02:03:09;;;;;;;13.68;6.00;;;6.70;1.00;;;;;;5049242;28;20742;-59
2023/03/17 02:05:37;;;;;;;15.23;5.47;;;7.90;1.00;;;;;;5049693;28;20445;-58
2023/03/17 02:08:11;;;;;;;11.32;5.47;;;7.30;1.00;;;;;;5048665;28;20420;-59
2023/03/17 02:10:37;;;;;;;11.93;5.20;;;6.60;1.00;;;;;;5049679;28;20388;-58
2023/03/17 02:13:04;;;;;;;11.45;5.00;;;6.60;1.00;;;;;;5048637;28;20428;-59
2023/03/17 02:15:40;;;;;;;12.80;5.20;;;6.70;1.00;;;;;;5049633;28;20386;-58
2023/03/17 02:18:07;;;;;;;10.27;4.75;;;6.50;1.00;;;;;;5048731;28;20385;-58
2023/03/17 02:20:33;;;;;;;10.80;4.90;;;6.30;1.00;;;;;;5049387;28;20460;-58
2023/03/17 02:23:00;;;;;;;12.07;4.80;;;7.20;1.00;;;;;;5049121;28;20538;-59
2023/03/17 02:25:28;;;;;;;10.70;4.90;;;6.40;1.00;;;;;;5053713;28;20492;-59
2023/03/17 02:28:00;;;;;;;10.85;5.43;;;6.40;1.00;;;;;;5053667;28;20432;-58
2023/03/17 02:30:27;;;;;;;13.10;5.50;;;6.40;1.00;;;;;;5053504;28;20452;-58
2023/03/17 02:32:53;;;;;;;12.25;5.30;;;6.40;1.00;;;;;;5053609;28;20453;-59
2023/03/17 02:35:19;;;;;;;14.88;6.00;;;6.40;1.00;;;;;;5052960;28;20385;-58
2023/03/17 02:37:45;;;;;;;13.07;6.00;;;6.30;1.00;;;;;;5053398;28;20391;-59
2023/03/17 02:40:13;;;;;;;11.65;5.78;;;7.40;1.00;;;;;;5053343;28;20385;-59
2023/03/17 02:42:40;;;;;;;12.90;5.70;;;6.30;1.00;;;;;;5053973;28;20388;-58
2023/03/17 02:45:08;;;;;;;14.15;5.70;;;6.20;1.00;;;;;;5052350;28;20397;-58
2023/03/17 02:47:34;;;;;;;15.93;5.57;;;6.20;1.00;;;;;;5053150;28;20392;-58
2023/03/17 02:50:00;;;;;;;14.27;5.93;;;6.60;1.00;;;;;;5052601;28;20459;-60
2023/03/17 02:52:26;;;;;;;12.93;5.97;;;6.20;1.00;;;;;;5053299;28;20452;-58
2023/03/17 02:54:52;;;;;;;13.13;5.23;;;7.80;1.00;;;;;;5053213;28;20389;-58
2023/03/17 02:57:18;;;;;;;11.55;4.93;;;6.80;1.00;;;;;;5052844;28;20517;-58
2023/03/17 02:59:43;;;;;;;13.65;5.65;;;6.10;1.00;;;;;;5053208;28;20779;-58
2023/03/17 03:02:09;;;;;;;14.87;6.07;;;6.20;1.00;;;;;;5052232;28;20384;-58
2023/03/17 03:04:36;;;;;;;12.52;4.95;;;6.20;1.00;;;;;;5053341;28;20762;-58
2023/03/17 03:07:02;;;;;;;12.25;5.00;;;6.20;1.00;;;;;;5052592;28;20388;-58
2023/03/17 03:09:28;;;;;;;11.60;5.40;;;6.20;1.00;;;;;;5052849;28;20385;-58
2023/03/17 03:11:54;;;;;;;12.25;4.85;;;6.10;1.00;;;;;;5052716;28;20462;-58
2023/03/17 03:14:20;;;;;;;14.55;5.10;;;6.20;1.00;;;;;;5051971;28;20485;-58
2023/03/17 03:16:46;;;;;;;11.75;5.18;;;6.70;1.00;;;;;;5052749;28;20385;-58
2023/03/17 03:19:11;;;;;;;15.27;5.30;;;6.10;1.00;;;;;;5052177;28;20397;-58
2023/03/17 03:21:37;;;;;;;11.87;5.07;;;7.20;1.00;;;;;;5053104;28;20439;-58
2023/03/17 03:24:03;;;;;;;12.20;5.50;;;6.20;1.00;;;;;;5052499;28;20385;-58
2023/03/17 03:26:29;;;;;;;12.23;5.10;;;6.20;1.00;;;;;;5052699;28;20381;-58
2023/03/17 03:28:57;;;;;;;11.60;5.25;;;6.70;1.00;;;;;;5052678;28;20417;-58
2023/03/17 03:31:23;;;;;;;11.43;5.13;;;6.10;1.00;;;;;;5051704;28;20423;-58
2023/03/17 03:33:48;;;;;;;11.95;5.15;;;6.20;1.00;;;;;;5051917;28;20504;-58
2023/03/17 03:36:14;;;;;;;13.00;5.22;;;6.10;1.00;;;;;;5051764;28;20484;-58
2023/03/17 03:38:40;;;;;;;12.70;5.50;;;6.20;1.00;;;;;;5052418;28;20377;-58
2023/03/17 03:41:07;;;;;;;11.10;4.70;;;6.30;1.00;;;;;;5052012;28;20389;-58
2023/03/17 03:43:33;;;;;;;10.82;4.80;;;7.60;1.00;;;;;;5052491;28;20474;-58
2023/03/17 03:45:58;;;;;;;13.10;5.20;;;5.80;1.00;;;;;;5051885;28;20473;-62
2023/03/17 03:48:24;;;;;;;11.80;5.20;;;7.60;1.00;;;;;;5051615;28;20389;-58
2023/03/17 03:50:49;;;;;;;11.68;5.00;;;6.50;1.00;;;;;;5052052;28;20815;-58
2023/03/17 03:53:15;;;;;;;11.80;5.30;;;5.60;42.90;;;;;;5051407;28;20447;-58
2023/03/17 03:55:41;;;;;;;13.35;5.38;;;5.50;49.60;;;;;;5052188;28;20858;-58
2023/03/17 03:58:07;;;;;;;16.05;5.80;;;5.50;99.90;;;;;;5051625;28;20389;-58
2023/03/17 04:00:33;;;;;;;12.77;5.25;;;6.60;99.90;;;;;;5052022;28;20413;-58
2023/03/17 04:02:59;;;;;;;11.10;4.20;;;5.60;99.90;;;;;;5052028;28;20471;-62
2023/03/17 04:05:24;;;;;;;10.77;5.00;;;7.00;94.90;;;;;;5049377;28;20399;-58
2023/03/17 04:07:50;;;;;;;12.77;5.30;;;5.70;33.00;;;;;;5051872;28;20851;-58
2023/03/17 04:10:16;;;;;;;17.33;5.40;;;7.40;20.60;;;;;;5034332;28;20381;-59
2023/03/17 04:12:42;;;;;;;13.00;5.70;;;5.50;25.40;;;;;;5048844;28;20751;-57
2023/03/17 04:15:10;;;;;;;13.60;6.00;;;7.30;94.10;;;;;;5051143;28;20855;-58
2023/03/17 04:17:36;;;;;;;13.23;6.10;;;5.40;99.90;;;;;;5051141;28;20408;-58
2023/03/17 04:20:01;;;;;;;11.70;4.90;;;7.30;99.90;;;;;;5045258;28;20849;-60
2023/03/17 04:22:27;;;;;;;14.30;5.45;;;5.30;99.90;;;;;;5031117;28;20390;-56
2023/03/17 04:24:52;;;;;;;10.00;5.00;;;5.30;99.90;;;;;;5032269;28;20406;-56
2023/03/17 04:27:18;;;;;;;14.05;5.78;;;5.30;99.90;;;;;;5031092;28;20477;-56
2023/03/17 04:29:44;;;;;;;14.40;5.73;;;6.10;99.90;;;;;;5031585;28;20903;-56
2023/03/17 04:32:13;;;;;;;10.87;4.80;;;5.70;99.90;;;;;;5046834;28;20405;-56
2023/03/17 04:34:40;;;;;;;12.98;5.53;;;5.30;99.90;;;;;;5051426;28;20488;-57
2023/03/17 04:37:07;;;;;;;11.55;5.38;;;5.40;99.90;;;;;;5050573;28;20464;-56
2023/03/17 04:39:33;;;;;;;11.25;4.90;;;5.40;99.90;;;;;;5051763;28;20382;-57
2023/03/17 04:41:59;;;;;;;15.57;5.68;;;6.80;99.90;;;;;;5050004;28;20450;-57
2023/03/17 04:44:25;;;;;;;11.57;5.60;;;5.50;99.90;;;;;;5051253;28;20430;-56
2023/03/17 04:46:50;;;;;;;13.50;5.80;;;5.50;98.60;;;;;;5050536;28;20385;-56
2023/03/17 04:49:17;;;;;;;14.68;5.95;;;5.40;99.90;;;;;;5050386;28;20388;-56
2023/03/17 04:51:42;;;;;;;11.77;5.50;;;6.40;99.90;;;;;;5049483;28;20397;-57
2023/03/17 04:54:08;;;;;;;14.43;5.90;;;5.70;97.80;;;;;;5050506;28;20926;-56
2023/03/17 04:56:33;;;;;;;12.73;5.75;;;6.60;90.60;;;;;;5050700;28;20381;-56
2023/03/17 04:58:59;;;;;;;13.83;5.60;;;5.50;44.50;;;;;;5049848;28;20409;-59
2023/03/17 05:01:25;;;;;;;13.60;5.10;;;5.50;62.60;;;;;;5050707;28;20528;-57
2023/03/17 05:03:51;;;;;;;10.57;5.35;;;5.50;49.50;;;;;;5050794;28;20716;-57
2023/03/17 05:06:16;;;;;;;9.65;4.50;;;5.50;36.40;;;;;;5050127;28;20476;-57
2023/03/17 05:08:45;;;;;;;13.60;5.40;;;5.40;69.90;;;;;;5050943;28;20377;-57
2023/03/17 05:11:12;;;;;;;10.75;4.78;;;5.50;67.70;;;;;;5031369;28;20409;-56
2023/03/17 05:13:39;;;;;;;11.30;5.18;;;5.50;82.80;;;;;;5050545;28;20397;-57
2023/03/17 05:16:06;;;;;;;11.52;5.20;;;5.60;47.90;;;;;;5049852;28;20401;-56
2023/03/17 05:18:32;;;;;;;16.52;6.20;;;5.50;29.90;;;;;;5050675;28;20382;-56
2023/03/17 05:20:58;;;;;;;13.48;5.80;;;5.90;42.90;;;;;;5050450;28;20385;-61
2023/03/17 05:23:24;;;;;;;14.68;5.97;;;6.30;51.90;;;;;;5050121;28;20400;-56
2023/03/17 05:25:51;;;;;;;12.45;5.30;;;5.40;95.80;;;;;;5049270;28;20403;-56
2023/03/17 05:28:19;;;;;;;12.73;5.10;;;5.30;99.90;;;;;;5058132;28;20892;-56
2023/03/17 05:30:47;;;;;;;16.20;6.13;;;7.30;99.90;;;;;;5060595;28;20389;-56
2023/03/17 05:33:13;;;;;;;13.60;5.67;;;5.20;99.90;;;;;;5055521;28;20414;-56
2023/03/17 05:35:42;;;;;;;14.70;5.60;;;5.20;99.90;;;;;;5058720;28;21400;-56
2023/03/17 05:38:09;;;;;;;14.70;5.90;;;6.30;99.90;;;;;;5060072;28;20452;-57
2023/03/17 05:40:35;;;;;;;12.18;5.53;;;5.20;99.90;;;;;;5058979;28;21024;-56
2023/03/17 05:43:04;;;;;;;11.40;5.20;;;5.30;99.90;;;;;;5058726;28;20392;-57
2023/03/17 05:45:30;;;;;;;13.27;6.10;;;6.60;99.90;;;;;;5063679;28;20853;-56
2023/03/17 05:47:56;;;;;;;12.05;5.40;;;7.00;99.90;;;;;;5057170;28;20382;-56
2023/03/17 05:50:22;;;;;;;12.18;5.68;;;5.40;99.90;;;;;;5038898;28;20449;-56
2023/03/17 05:52:48;;;;;;;11.93;5.28;;;7.50;99.90;;;;;;5050103;28;20405;-56
2023/03/17 05:55:13;;;;;;;13.35;5.93;;;6.40;99.90;;;;;;5049631;28;20416;-56
2023/03/17 05:57:39;;;;;;;13.83;6.20;;;5.50;99.90;;;;;;5049812;28;20784;-58
2023/03/17 06:00:06;;;;;;;12.57;5.70;;;5.70;99.90;;;;;;5052286;28;20571;-59
2023/03/17 06:02:32;;;;;;;14.95;5.68;;;5.70;99.90;;;;;;5057762;28;20431;-58
2023/03/17 06:04:57;;;;;;;12.13;6.10;;;5.90;24.10;;;;;;5050098;28;20370;-58
2023/03/17 06:07:23;;;;;;;12.43;5.55;;;8.00;1.00;;;;;;5049225;28;20505;-56
2023/03/17 06:09:49;;;;;;;12.90;5.60;;;5.90;1.00;;;;;;5049838;28;20462;-56
2023/03/17 06:12:15;;;;;;;15.23;6.50;;;6.30;1.00;;;;;;5048912;28;20504;-57
2023/03/17 06:14:40;;;;;;;14.82;6.30;;;6.80;1.00;;;;;;5048888;28;20393;-57
2023/03/17 06:17:06;;;;;;;14.48;5.63;;;7.60;1.00;;;;;;5058865;28;20377;-57
2023/03/17 06:19:32;;;;;;;12.83;5.77;;;8.50;1.00;;;;;;5057937;28;20408;-57
2023/03/17 06:21:58;;;;;;;12.60;5.60;;;9.30;1.00;;;;;;5060009;28;20810;-57
2023/03/17 06:24:24;;;;;;;19.45;5.97;;;10.20;99.90;;;;;;5049886;28;20651;-61
2023/03/17 06:26:51;;;;;;;13.07;6.50;;;11.00;99.90;;;;;;5049518;28;20378;-61
2023/03/17 06:29:17;;;;;;;14.60;6.65;;;11.50;99.90;;;;;;5048859;28;20409;-61
2023/03/17 06:31:49;;;;;;;16.02;6.00;;;11.30;99.90;;;;;;5049955;28;20742;-57
2023/03/17 06:34:17;;;;;;;14.87;6.13;;;11.10;99.90;;;;;;5053667;28;20494;-61
2023/03/17 06:36:44;;;;;;;16.75;7.13;;;10.40;99.90;;;;;;5060582;28;20389;-61
2023/03/17 06:39:10;;;;;;;13.00;6.72;;;9.90;99.90;;;;;;5056886;28;20386;-61
2023/03/17 06:41:36;;;;;;;18.20;7.10;;;9.80;99.90;;;;;;5048144;28;20412;-57
2023/03/17 06:44:03;;;;;;;14.52;6.70;;;10.00;99.90;;;;;;5048986;28;20397;-60
2023/03/17 06:46:28;;;;;;;12.60;6.80;;;10.30;99.90;;;;;;5048228;28;20381;-57
2023/03/17 06:48:54;;;;;;;13.20;6.87;;;10.40;99.90;;;;;;5031335;28;20455;-57
2023/03/17 06:51:20;;;;;;;17.67;6.10;;;10.00;99.90;;;;;;5048898;28;20383;-57
2023/03/17 06:53:45;;;;;;;15.38;6.70;;;9.90;99.90;;;;;;5049395;28;20727;-57
2023/03/17 06:56:11;;;;;;;12.57;5.63;;;10.40;99.90;;;;;;5048579;28;20480;-58
2023/03/17 06:58:36;;;;;;;17.20;6.03;;;11.70;99.90;;;;;;5049080;28;20935;-58
2023/03/17 07:01:03;;;;;;;14.20;6.38;;;13.30;99.90;;;;;;5048952;28;20405;-58
2023/03/17 07:03:29;;;;;;;14.00;6.25;;;13.90;99.90;;;;;;5046965;28;20730;-62
2023/03/17 07:05:55;;;;;;;12.25;6.20;;;14.40;99.90;;;;;;5043458;28;20449;-58
2023/03/17 07:08:21;;;;;;;13.05;6.05;;;14.90;99.90;;;;;;5049204;28;20385;-57
2023/03/17 07:10:47;;;;;;;12.15;7.10;;;14.70;99.90;;;;;;5052624;28;20761;-57
2023/03/17 07:13:13;;;;;;;12.60;6.90;;;14.50;99.90;;;;;;5052527;28;20409;-58
2023/03/17 07:15:39;;;;;;;12.40;7.30;;;14.40;99.90;;;;;;5053170;28;20731;-56
2023/03/17 07:18:05;;;;;;;12.47;7.00;;;14.90;99.90;;;;;;5051977;28;20897;-56
2023/03/17 07:20:31;;;;;;;13.35;7.15;;;15.50;99.90;;;;;;5053067;28;20384;-56
2023/03/17 07:23:00;;;;;;;12.07;7.20;;;16.00;99.90;;;;;;5052476;28;20385;-56
2023/03/17 07:25:25;;;;;;;13.68;7.70;;;16.40;99.90;;;;;;5052186;28;20855;-56
2023/03/17 07:27:52;;;;;;;11.50;7.65;;;16.60;99.90;;;;;;5052146;28;20503;-55
2023/03/17 07:30:18;;;;;;;13.60;8.80;;;16.70;99.90;;;;;;5051635;28;20391;-58
2023/03/17 07:32:47;;;;;;;12.63;8.60;;;16.70;99.90;;;;;;5052335;28;20397;-56
2023/03/17 07:35:14;;;;;;;14.77;8.73;;;16.20;99.90;;;;;;5051334;28;20455;-56
2023/03/17 07:37:40;;;;;;;14.48;8.23;;;15.60;99.90;;;;;;5034452;28;20393;-56
2023/03/17 07:40:08;;;;;;;11.80;7.20;;;15.00;99.90;;;;;;5052001;28;20386;-56
2023/03/17 07:42:34;;;;;;;11.63;7.07;;;14.40;99.90;;;;;;5052552;28;20397;-56
2023/03/17 07:45:00;;;;;;;11.70;6.95;;;14.20;99.90;;;;;;5052094;28;20392;-58
2023/03/17 07:47:26;;;;;;;12.00;7.30;;;14.50;99.90;;;;;;5051293;28;20397;-55
2023/03/17 07:49:52;;;;;;;11.65;7.50;;;14.80;99.90;;;;;;5051897;28;20400;-56
2023/03/17 07:52:18;;;;;;;11.52;7.45;;;15.30;99.90;;;;;;5050823;28;20414;-56
2023/03/17 07:54:44;;;;;;;12.20;7.60;;;15.90;99.90;;;;;;5052753;28;20472;-56
2023/03/17 07:57:10;;;;;;;11.73;7.30;;;16.10;99.90;;;;;;5051966;28;20477;-56
2023/03/17 07:59:37;;;;;;;12.80;7.57;;;16.10;99.90;;;;;;5052164;28;20397;-56
2023/03/17 08:02:03;;;;;;;14.60;7.40;;;15.90;99.90;;;;;;5051350;28;20400;-60
2023/03/17 08:04:29;;;;;;;12.05;7.60;;;15.80;99.90;;;;;;5051667;28;20446;-56
2023/03/17 08:06:55;;;;;;;13.68;7.13;;;15.80;99.90;;;;;;5051666;28;20378;-56
2023/03/17 08:09:21;;;;;;;11.63;7.55;;;16.10;99.90;;;;;;5051001;28;20384;-56
2023/03/17 08:11:47;;;;;;;14.10;7.80;;;16.20;99.90;;;;;;5051598;28;20473;-56
2023/03/17 08:14:13;;;;;;;13.80;7.30;;;;;;;;;;5051142;28;20389;-57
2023/03/17 08:16:40;;;;;;;15.70;7.30;;;;;;;;;;5051851;28;20488;-56
2023/03/17 08:19:06;;;;;;;11.65;5.53;;;19.90;99.90;;;;;;5051049;28;20724;-57
2023/03/17 08:21:32;;;;;;;15.70;14.05;;;20.30;99.90;;;;;;5050454;28;20386;-57
2023/03/17 08:23:57;;;;;;;13.38;11.00;;;21.20;99.90;;;;;;5051526;28;20468;-57
2023/03/17 08:26:24;;;;;;;13.47;7.80;;;21.10;99.90;;;;;;5051268;28;20412;-56
2023/03/17 08:28:50;;;;;;;11.63;7.60;;;20.70;99.90;;;;;;5051487;28;20720;-56
2023/03/17 08:31:18;;;;;;;13.17;7.87;;;20.70;99.90;;;;;;5050932;28;20388;-57
2023/03/17 08:33:49;;;;;;;12.80;7.60;;;20.50;99.90;;;;;;5051590;28;20409;-57
2023/03/17 08:36:16;;;;;;;11.65;7.38;;;19.80;99.90;;;;;;5050516;28;20393;-57
2023/03/17 08:38:43;;;;;;;13.00;7.60;;;19.40;99.90;;;;;;5033399;28;20935;-58
2023/03/17 08:41:12;;;;;;;12.52;5.40;;;19.50;99.90;;;;;;5051218;28;20423;-60
2023/03/17 08:43:39;;;;;;;10.63;5.10;;;20.00;99.90;;;;;;5051365;28;20413;-56
2023/03/17 08:46:08;;;;;;;14.73;5.13;;;20.80;99.90;;;;;;5050378;28;20393;-57
2023/03/17 08:48:36;;;;;;;11.38;5.50;;;21.80;99.90;;;;;;5051382;28;20381;-57
2023/03/17 08:51:03;;;;;;;12.10;5.63;;;22.30;99.90;;;;;;5050893;28;20389;-59
2023/03/17 08:53:29;;;;;;;14.30;5.63;;;23.80;99.90;;;;;;5051045;28;20424;-57
2023/03/17 08:55:56;;;;;;;11.88;6.20;;;22.70;99.90;;;;;;5050647;28;20381;-59
2023/03/17 08:58:22;;;;;;;14.32;10.10;;;24.30;99.90;;;;;;5050251;28;20397;-60
2023/03/17 09:00:48;;;;;;;13.80;6.55;;;24.30;99.90;;;;;;5050759;28;20468;-59
2023/03/17 09:03:14;;;;;;;13.05;6.40;;;24.50;99.90;;;;;;5050196;28;20476;-60
2023/03/17 09:05:41;;;;;;;10.45;6.38;;;24.60;99.90;;;;;;5050798;28;20385;-59
2023/03/17 09:08:08;;;;;;;13.25;9.73;;;24.60;99.90;;;;;;5049817;28;20377;-58
2023/03/17 09:10:34;;;;;;;10.88;5.50;;;25.50;99.90;;;;;;5050868;28;20472;-57
2023/03/17 09:13:02;;;;;;;10.10;5.40;;;25.60;99.90;;;;;;5050984;28;20405;-60
2023/03/17 09:15:29;;;;;;;11.60;5.33;;;25.00;99.90;;;;;;5050256;28;20401;-60
2023/03/17 09:17:56;;;;;;;11.90;5.00;;;24.60;99.90;;;;;;5050248;28;20389;-60
2023/03/17 09:20:22;;;;;;;11.70;4.70;;;24.80;99.90;;;;;;5050150;28;20831;-60
2023/03/17 09:22:48;;;;;;;10.13;5.38;;;25.20;99.90;;;;;;5050519;28;20388;-58
2023/03/17 09:25:14;;;;;;;12.98;4.82;;;25.80;99.90;;;;;;5049561;28;20381;-57
2023/03/17 09:27:40;;;;;;;11.30;4.90;;;25.70;99.90;;;;;;5050223;28;20414;-62
2023/03/17 09:30:09;;;;;;;13.30;5.23;;;25.50;99.90;;;;;;5049734;28;20393;-58
2023/03/17 09:32:35;;;;;;;9.98;4.70;;;26.60;99.90;;;;;;5049394;28;20863;-58
2023/03/17 09:35:02;;;;;;;11.45;8.10;;;27.20;99.90;;;;;;5050407;28;20396;-58
2023/03/17 09:37:28;;;;;;;12.07;5.93;;;26.50;99.90;;;;;;5049379;28;20421;-58
2023/03/17 09:39:55;;;;;;;11.70;10.00;;;26.80;99.90;;;;;;5050377;28;20378;-58
2023/03/17 09:42:40;;;;;;;24.42;22.52;;;26.90;99.90;;;;;;5049257;28;20797;-58
2023/03/17 09:45:24;;;;;;;10.98;7.95;;;26.80;99.90;;;;;;5049480;28;20393;-63
2023/03/17 09:48:21;;;;;;;11.15;7.50;;;26.80;99.90;;;;;;5050186;28;20370;-57
2023/03/17 09:51:04;;;;;;;8.88;4.30;;;26.40;99.90;;;;;;5050358;28;20381;-58
2023/03/17 09:53:55;;;;;;;10.18;4.70;;;25.60;99.90;;;;;;5049377;28;20405;-58
2023/03/17 09:56:23;;;;;;;11.02;5.35;;;25.30;99.90;;;;;;5043896;28;20399;-58
2023/03/17 09:58:59;;;;;;;10.45;4.75;;;26.50;99.90;;;;;;5050268;28;20423;-57
2023/03/17 10:01:25;;;;;;;10.30;4.68;;;26.40;99.90;;;;;;5048987;28;20457;-58
2023/03/17 10:03:51;;;;;;;9.03;4.20;;;26.00;99.90;;;;;;5049777;28;20394;-59
2023/03/17 10:06:34;;;;;;;10.13;4.53;;;26.20;99.90;;;;;;5049390;28;20390;-58
2023/03/17 10:09:04;;;;;;;8.88;3.63;;;27.40;99.90;;;;;;5049441;28;20739;-58
2023/03/17 10:11:47;;;;;;;14.07;12.77;;;27.90;99.90;;;;;;5049931;28;20447;-58
2023/03/17 10:14:22;;;;;;;14.20;12.80;;;27.50;99.90;;;;;;5048912;28;20489;-57
2023/03/17 10:17:08;;;;;;;8.97;3.80;;;27.50;99.90;;;;;;5049787;28;20454;-58
2023/03/17 10:19:43;;;;;;;8.07;3.60;;;27.10;99.90;;;;;;5049655;28;20393;-57
2023/03/17 10:22:24;;;;;;;7.93;3.42;;;26.40;99.90;;;;;;5048905;28;20874;-57
2023/03/17 10:25:02;;;;;;;8.90;3.60;;;25.90;99.90;;;;;;5049370;28;20385;-57
2023/03/17 10:27:33;;;;;;;7.85;3.33;;;25.50;99.90;;;;;;5031520;28;20413;-58
2023/03/17 10:29:58;;;;;;;9.65;3.00;;;25.10;99.90;;;;;;5049723;28;20476;-61
2023/03/17 10:32:26;;;;;;;12.05;10.85;;;24.60;99.90;;;;;;5049064;28;20803;-57
2023/03/17 10:34:53;;;;;;;12.10;11.00;;;24.00;99.90;;;;;;5049730;28;20390;-58
2023/03/17 10:37:22;;;;;;;11.75;10.55;;;23.40;99.90;;;;;;5048694;28;20399;-58
2023/03/17 10:39:54;;;;;;;11.65;10.65;;;22.90;99.90;;;;;;5049400;28;20850;-57
2023/03/17 10:42:22;;;;;;;11.30;10.23;;;22.70;99.90;;;;;;5049044;28;20473;-57
2023/03/17 10:45:12;;;;;;;11.20;10.20;;;22.40;99.90;;;;;;5050986;28;20382;-58
2023/03/17 10:47:43;;;;;;;11.30;10.23;;;21.90;99.90;;;;;;5053325;28;20377;-57
2023/03/17 10:50:15;;;;;;;10.90;9.80;;;21.40;99.90;;;;;;5052593;28;20435;-58
2023/03/17 10:52:41;;;;;;;12.37;11.07;;;21.50;99.90;;;;;;5053062;28;20412;-58
2023/03/17 10:55:12;;;;;;;11.85;10.77;;;21.90;99.90;;;;;;5052679;28;20472;-63
2023/03/17 10:57:39;;;;;;;11.65;10.65;;;22.50;99.90;;;;;;5053138;28;20434;-58
2023/03/17 11:00:19;;;;;;;11.60;10.45;;;22.90;99.90;;;;;;5052861;28;20418;-65
2023/03/17 11:02:54;;;;;;;11.30;10.20;;;23.80;99.90;;;;;;5053048;28;20385;-61
2023/03/17 11:05:22;;;;;;;11.40;10.20;;;24.50;99.90;;;;;;5052563;28;20389;-59
2023/03/17 11:07:48;;;;;;;13.80;12.40;;;25.10;99.90;;;;;;5052945;28;20389;-60
2023/03/17 11:10:23;;;;;;;10.10;9.20;;;25.10;99.90;;;;;;5052556;28;20392;-61
2023/03/17 11:12:57;;;;;;;9.77;8.88;;;25.20;99.90;;;;;;5053006;28;20409;-60
2023/03/17 11:15:29;;;;;;;10.27;9.27;;;24.40;99.90;;;;;;5052683;28;20384;-58
2023/03/17 11:18:02;;;;;;;11.07;9.98;;;23.60;99.90;;;;;;5052929;28;20843;-58
2023/03/17 11:20:49;;;;;;;10.30;9.30;;;22.80;99.90;;;;;;5052110;28;20564;-58
2023/03/17 11:23:49;;;;;;;11.10;10.10;;;22.20;99.90;;;;;;5052453;28;20447;-58
2023/03/17 11:26:33;;;;;;;10.20;9.30;;;21.90;99.90;;;;;;5051902;28;20486;-57
2023/03/17 11:29:05;;;;;;;10.85;9.90;;;21.80;99.90;;;;;;5052443;28;20404;-58
2023/03/17 11:31:35;;;;;;;10.70;9.60;;;21.90;99.90;;;;;;5052529;28;20405;-57
2023/03/17 11:34:07;;;;;;;10.35;9.35;;;21.70;99.90;;;;;;5052803;28;20856;-58
2023/03/17 11:36:57;;;;;;;10.40;9.40;;;21.40;99.90;;;;;;5052612;28;20850;-57
2023/03/17 11:39:35;;;;;;;10.30;9.30;;;21.30;99.90;;;;;;5051838;28;20469;-57
2023/03/17 11:42:19;;;;;;;10.27;9.27;;;21.10;99.90;;;;;;5052839;28;20364;-58
2023/03/17 11:44:57;;;;;;;10.70;9.60;;;21.50;99.90;;;;;;5052387;28;20396;-58
2023/03/17 11:47:37;;;;;;;10.20;9.30;;;21.70;99.90;;;;;;5050694;28;20385;-57
2023/03/17 11:50:27;;;;;;;11.52;9.40;;;21.60;99.90;;;;;;5052262;28;20432;-58
2023/03/17 11:53:00;;;;;;;9.93;8.90;;;21.70;99.90;;;;;;5052272;28;20412;-57
2023/03/17 11:55:41;;;;;;;10.00;8.50;;;21.90;99.90;;;;;;5051134;28;20440;-58
2023/03/17 11:58:22;;;;;;;9.57;8.67;;;21.70;99.90;;;;;;5051580;28;20455;-63
2023/03/17 12:00:55;;;;;;;9.70;8.80;;;21.80;99.90;;;;;;5051769;28;20750;-59
2023/03/17 12:03:46;;;;;;;11.02;9.82;;;21.90;99.90;;;;;;5051270;28;20420;-58
2023/03/17 12:06:29;;;;;;;10.40;9.40;;;22.00;99.90;;;;;;5051396;28;20385;-58
2023/03/17 12:09:06;;;;;;;10.02;9.02;;;21.90;99.90;;;;;;5051703;28;20385;-58
2023/03/17 12:11:38;;;;;;;9.30;8.40;;;22.00;99.90;;;;;;5051780;28;20427;-57
2023/03/17 12:14:22;;;;;;;8.95;8.15;;;22.10;99.90;;;;;;5051886;28;20466;-58
2023/03/17 12:17:01;;;;;;;9.30;8.50;;;22.20;99.90;;;;;;5051796;28;20474;-57
2023/03/17 12:19:27;;;;;;;9.02;8.13;;;21.90;99.90;;;;;;5051321;28;20382;-57
2023/03/17 12:22:10;;;;;;;9.57;8.50;;;21.80;99.90;;;;;;5051492;28;21121;-56
2023/03/17 12:24:39;;;;;;;10.13;9.05;;;22.00;99.90;;;;;;5051899;28;20388;-58
2023/03/17 12:27:16;;;;;;;9.10;8.20;;;22.00;99.90;;;;;;5050994;28;20406;-58
2023/03/17 12:29:48;;;;;;;9.73;8.82;;;22.20;99.90;;;;;;5051713;28;20773;-57
2023/03/17 12:32:35;;;;;;;9.70;8.70;;;22.20;99.90;;;;;;5050737;28;20414;-58
2023/03/17 12:35:30;;;;;;;8.80;8.00;;;22.20;99.90;;;;;;5051130;28;20412;-58
2023/03/17 12:38:06;;;;;;;9.35;8.55;;;22.40;99.90;;;;;;5033951;28;20807;-57
2023/03/17 12:40:38;;;;;;;9.60;8.70;;;22.60;99.90;;;;;;5050838;28;20393;-58
2023/03/17 12:43:35;;;;;;;9.13;8.30;;;22.70;99.90;;;;;;5051132;28;20439;-59
2023/03/17 12:46:42;;;;;;;9.52;8.52;;;22.40;99.90;;;;;;5051063;28;20750;-57
2023/03/17 12:49:32;;;;;;;9.10;8.20;;;22.50;99.90;;;;;;5050162;28;20520;-59
2023/03/17 12:52:06;;;;;;;9.02;7.82;;;22.40;99.90;;;;;;5051289;28;20480;-58
2023/03/17 12:54:35;;;;;;;9.40;8.30;;;22.30;99.90;;;;;;5051327;28;20377;-58
2023/03/17 12:57:13;;;;;;;10.68;8.10;;;22.30;99.90;;;;;;5051495;28;20388;-58